BVX419A EGBB-LEIB
Flight info
| Callsign | BVX419A |
|---|---|
| Flight time | 2h 11m |
| Altitude | 37000 |
| Route | ADMEX Y321 CPT UN859 SOPIL DCT BALAN DCT EVPOK DCT NARAK DCT GAI DCT LOMRA DCT ROCAN/N0456F310 DCT PUMAL N859 BCN Z174 CORDA |
| Aircraft | B738/M-SDE2E3FGHIRWXY/LB1 |
Departure
| Time | 2026-05-05 07:05 |
|---|---|
| Airport | Birmingham Airport (EGBB) |
Arrival
| Time | 2026-05-05 09:17 |
|---|---|
| Airport | Ibiza Airport (LEIB) |
| Time | Latitude | Longitude | Altitude | Speed | Heading |
|---|---|---|---|---|---|
| 2026-05-05 06:46 | 52.44993 | -1.73411 | 330 ft | 0 kts | 326° |
| 2026-05-05 06:58 | 52.44992 | -1.73410 | 330 ft | 2 kts | 326° |
| 2026-05-05 06:58 | 52.44975 | -1.73385 | 326 ft | 4 kts | 297° |
| 2026-05-05 06:59 | 52.44971 | -1.73347 | 328 ft | 4 kts | 247° |
| 2026-05-05 06:59 | 52.44975 | -1.73333 | 327 ft | 1 kts | 236° |
| 2026-05-05 07:02 | 52.44971 | -1.73343 | 330 ft | 3 kts | 236° |
| 2026-05-05 07:02 | 52.44951 | -1.73393 | 327 ft | 8 kts | 236° |
| 2026-05-05 07:02 | 52.44921 | -1.73497 | 328 ft | 12 kts | 246° |
| 2026-05-05 07:03 | 52.44878 | -1.73609 | 330 ft | 11 kts | 237° |
| 2026-05-05 07:03 | 52.44823 | -1.73691 | 329 ft | 11 kts | 199° |
| 2026-05-05 07:03 | 52.44752 | -1.73728 | 329 ft | 11 kts | 202° |
| 2026-05-05 07:03 | 52.44707 | -1.73811 | 330 ft | 9 kts | 235° |
| 2026-05-05 07:04 | 52.44670 | -1.73899 | 330 ft | 10 kts | 236° |
| 2026-05-05 07:04 | 52.44646 | -1.73974 | 328 ft | 6 kts | 273° |
| 2026-05-05 07:04 | 52.44669 | -1.74010 | 328 ft | 0 kts | 326° |
| 2026-05-05 07:05 | 52.44721 | -1.74068 | 327 ft | 36 kts | 326° |
| 2026-05-05 07:05 | 52.45138 | -1.74531 | 328 ft | 106 kts | 326° |
| 2026-05-05 07:05 | 52.45912 | -1.75373 | 368 ft | 158 kts | 328° |
| 2026-05-05 07:05 | 52.46849 | -1.76404 | 1054 ft | 166 kts | 328° |
| 2026-05-05 07:06 | 52.47788 | -1.77490 | 2019 ft | 164 kts | 326° |
| 2026-05-05 07:06 | 52.48826 | -1.78563 | 2483 ft | 188 kts | 344° |
| 2026-05-05 07:06 | 52.50132 | -1.78543 | 3094 ft | 195 kts | 20° |
| 2026-05-05 07:06 | 52.51224 | -1.77174 | 3702 ft | 203 kts | 49° |
| 2026-05-05 07:07 | 52.51801 | -1.75908 | 3979 ft | 217 kts | 52° |
| 2026-05-05 07:07 | 52.52692 | -1.73836 | 4532 ft | 225 kts | 53° |
| 2026-05-05 07:07 | 52.53286 | -1.71423 | 5111 ft | 237 kts | 87° |
| 2026-05-05 07:07 | 52.52846 | -1.68837 | 5727 ft | 244 kts | 125° |
| 2026-05-05 07:08 | 52.51708 | -1.66767 | 6168 ft | 246 kts | 134° |
| 2026-05-05 07:08 | 52.50453 | -1.64561 | 6267 ft | 279 kts | 131° |
| 2026-05-05 07:08 | 52.49163 | -1.62130 | 7091 ft | 281 kts | 130° |
| 2026-05-05 07:08 | 52.47899 | -1.59660 | 7907 ft | 285 kts | 129° |
| 2026-05-05 07:09 | 52.46620 | -1.57127 | 8683 ft | 291 kts | 130° |
| 2026-05-05 07:09 | 52.45089 | -1.54956 | 9487 ft | 294 kts | 149° |
| 2026-05-05 07:09 | 52.43315 | -1.53270 | 10288 ft | 297 kts | 150° |
| 2026-05-05 07:09 | 52.41480 | -1.51508 | 10637 ft | 317 kts | 150° |
| 2026-05-05 07:10 | 52.39517 | -1.49587 | 10833 ft | 341 kts | 149° |
| 2026-05-05 07:10 | 52.37403 | -1.47537 | 11013 ft | 363 kts | 153° |
| 2026-05-05 07:10 | 52.35040 | -1.45918 | 11492 ft | 372 kts | 164° |
| 2026-05-05 07:10 | 52.32502 | -1.45010 | 12228 ft | 374 kts | 171° |
| 2026-05-05 07:11 | 52.29932 | -1.44306 | 13002 ft | 376 kts | 172° |
| 2026-05-05 07:11 | 52.27362 | -1.43631 | 13689 ft | 381 kts | 172° |
| 2026-05-05 07:11 | 52.24699 | -1.42926 | 14360 ft | 384 kts | 172° |
| 2026-05-05 07:11 | 52.22100 | -1.42222 | 15093 ft | 384 kts | 172° |
| 2026-05-05 07:12 | 52.19463 | -1.41495 | 15816 ft | 385 kts | 171° |
| 2026-05-05 07:12 | 52.16816 | -1.40756 | 16498 ft | 387 kts | 171° |
| 2026-05-05 07:12 | 52.14151 | -1.40010 | 17155 ft | 390 kts | 171° |
| 2026-05-05 07:12 | 52.11476 | -1.39259 | 17846 ft | 391 kts | 171° |
| 2026-05-05 07:13 | 52.08787 | -1.38503 | 18474 ft | 394 kts | 171° |
| 2026-05-05 07:13 | 52.06081 | -1.37744 | 18982 ft | 397 kts | 171° |
| 2026-05-05 07:13 | 52.03344 | -1.36977 | 19532 ft | 399 kts | 171° |
| 2026-05-05 07:13 | 52.00637 | -1.36220 | 20110 ft | 401 kts | 171° |
| 2026-05-05 07:14 | 51.97877 | -1.35450 | 20587 ft | 405 kts | 171° |
| 2026-05-05 07:14 | 51.95088 | -1.34673 | 21078 ft | 408 kts | 171° |
| 2026-05-05 07:14 | 51.92286 | -1.33893 | 21618 ft | 410 kts | 171° |
| 2026-05-05 07:14 | 51.89460 | -1.33106 | 22138 ft | 412 kts | 171° |
| 2026-05-05 07:15 | 51.86622 | -1.32317 | 22623 ft | 415 kts | 171° |
| 2026-05-05 07:15 | 51.83761 | -1.31522 | 23116 ft | 418 kts | 171° |
| 2026-05-05 07:15 | 51.80889 | -1.30726 | 23592 ft | 421 kts | 171° |
| 2026-05-05 07:15 | 51.77997 | -1.29925 | 23984 ft | 423 kts | 171° |
| 2026-05-05 07:16 | 51.75085 | -1.29119 | 24395 ft | 425 kts | 171° |
| 2026-05-05 07:16 | 51.72171 | -1.28314 | 24804 ft | 426 kts | 171° |
| 2026-05-05 07:16 | 51.69244 | -1.27506 | 25178 ft | 428 kts | 171° |
| 2026-05-05 07:16 | 51.66306 | -1.26696 | 25566 ft | 429 kts | 171° |
| 2026-05-05 07:17 | 51.63355 | -1.25883 | 25943 ft | 431 kts | 171° |
| 2026-05-05 07:17 | 51.60396 | -1.25070 | 26326 ft | 432 kts | 171° |
| 2026-05-05 07:17 | 51.57434 | -1.24256 | 26703 ft | 433 kts | 171° |
| 2026-05-05 07:17 | 51.54492 | -1.23449 | 27060 ft | 435 kts | 171° |
| 2026-05-05 07:18 | 51.51469 | -1.22619 | 27408 ft | 436 kts | 171° |
| 2026-05-05 07:18 | 51.48556 | -1.21480 | 27746 ft | 439 kts | 163° |
| 2026-05-05 07:18 | 51.45720 | -1.19593 | 28076 ft | 442 kts | 156° |
| 2026-05-05 07:18 | 51.42947 | -1.17432 | 28423 ft | 443 kts | 156° |
| 2026-05-05 07:19 | 51.40157 | -1.15310 | 28739 ft | 444 kts | 157° |
| 2026-05-05 07:19 | 51.37357 | -1.13233 | 29184 ft | 442 kts | 158° |
| 2026-05-05 07:19 | 51.34568 | -1.11192 | 29730 ft | 439 kts | 158° |
| 2026-05-05 07:19 | 51.32699 | -1.09830 | 30104 ft | 436 kts | 158° |
| 2026-05-05 07:20 | 51.30491 | -1.08219 | 30423 ft | 434 kts | 158° |
| 2026-05-05 07:20 | 51.27771 | -1.06077 | 30658 ft | 438 kts | 154° |
| 2026-05-05 07:20 | 51.25109 | -1.03680 | 30868 ft | 440 kts | 152° |
| 2026-05-05 07:21 | 51.22472 | -1.01205 | 31157 ft | 441 kts | 152° |
| 2026-05-05 07:21 | 51.19835 | -0.98704 | 31486 ft | 440 kts | 151° |
| 2026-05-05 07:21 | 51.17210 | -0.96226 | 31774 ft | 440 kts | 151° |
| 2026-05-05 07:21 | 51.14558 | -0.93744 | 32034 ft | 441 kts | 152° |
| 2026-05-05 07:22 | 51.11902 | -0.91280 | 32314 ft | 442 kts | 152° |
| 2026-05-05 07:22 | 51.09245 | -0.88829 | 32597 ft | 442 kts | 152° |
| 2026-05-05 07:22 | 51.06577 | -0.86380 | 32845 ft | 443 kts | 152° |
| 2026-05-05 07:22 | 51.03906 | -0.83935 | 33106 ft | 443 kts | 152° |
| 2026-05-05 07:23 | 51.01235 | -0.81496 | 33387 ft | 443 kts | 152° |
| 2026-05-05 07:23 | 50.98560 | -0.79054 | 33649 ft | 443 kts | 152° |
| 2026-05-05 07:23 | 50.95889 | -0.76621 | 33893 ft | 444 kts | 152° |
| 2026-05-05 07:23 | 50.93207 | -0.74180 | 34119 ft | 444 kts | 152° |
| 2026-05-05 07:24 | 50.90531 | -0.71747 | 34329 ft | 444 kts | 152° |
| 2026-05-05 07:24 | 50.87846 | -0.69309 | 34531 ft | 445 kts | 152° |
| 2026-05-05 07:24 | 50.85161 | -0.66874 | 34734 ft | 445 kts | 152° |
| 2026-05-05 07:24 | 50.82499 | -0.64463 | 34923 ft | 446 kts | 152° |
| 2026-05-05 07:25 | 50.79806 | -0.62028 | 35132 ft | 446 kts | 152° |
| 2026-05-05 07:25 | 50.77112 | -0.59594 | 35325 ft | 446 kts | 152° |
| 2026-05-05 07:25 | 50.74381 | -0.57130 | 35516 ft | 447 kts | 152° |
| 2026-05-05 07:25 | 50.71720 | -0.54734 | 35711 ft | 447 kts | 152° |
| 2026-05-05 07:26 | 50.69019 | -0.52304 | 35905 ft | 447 kts | 152° |
| 2026-05-05 07:26 | 50.66318 | -0.49877 | 36084 ft | 447 kts | 152° |
| 2026-05-05 07:26 | 50.63612 | -0.47450 | 36276 ft | 447 kts | 152° |
| 2026-05-05 07:26 | 50.60919 | -0.45037 | 36466 ft | 447 kts | 152° |
| 2026-05-05 07:27 | 50.58208 | -0.42611 | 36646 ft | 447 kts | 152° |
| 2026-05-05 07:27 | 50.55501 | -0.40191 | 36819 ft | 447 kts | 152° |
| 2026-05-05 07:27 | 50.52790 | -0.37773 | 36954 ft | 448 kts | 152° |
| 2026-05-05 07:28 | 50.47352 | -0.32929 | 36958 ft | 449 kts | 152° |
| 2026-05-05 07:28 | 50.41941 | -0.28121 | 36951 ft | 445 kts | 152° |
| 2026-05-05 07:29 | 50.36585 | -0.23375 | 36955 ft | 441 kts | 152° |
| 2026-05-05 07:29 | 50.31252 | -0.18663 | 36956 ft | 438 kts | 153° |
| 2026-05-05 07:30 | 50.25944 | -0.13984 | 36951 ft | 437 kts | 153° |
| 2026-05-05 07:30 | 50.17994 | -0.06999 | 36949 ft | 437 kts | 153° |
| 2026-05-05 07:31 | 50.12682 | -0.02346 | 36949 ft | 439 kts | 153° |
| 2026-05-05 07:31 | 50.07426 | 0.01179 | 36934 ft | 436 kts | 167° |
| 2026-05-05 07:32 | 50.01575 | 0.03411 | 36939 ft | 437 kts | 168° |
| 2026-05-05 07:32 | 49.95661 | 0.05650 | 36940 ft | 438 kts | 167° |
| 2026-05-05 07:33 | 49.89739 | 0.07946 | 36936 ft | 439 kts | 167° |
| 2026-05-05 07:33 | 49.83819 | 0.10261 | 36926 ft | 439 kts | 167° |
| 2026-05-05 07:34 | 49.77898 | 0.12571 | 36920 ft | 438 kts | 167° |
| 2026-05-05 07:34 | 49.71988 | 0.14869 | 36914 ft | 437 kts | 167° |
| 2026-05-05 07:35 | 49.66093 | 0.17170 | 36915 ft | 436 kts | 167° |
| 2026-05-05 07:35 | 49.60230 | 0.19549 | 36912 ft | 435 kts | 166° |
| 2026-05-05 07:36 | 49.54391 | 0.21928 | 36911 ft | 433 kts | 166° |
| 2026-05-05 07:36 | 49.48568 | 0.24283 | 36912 ft | 432 kts | 166° |
| 2026-05-05 07:37 | 49.42758 | 0.26622 | 36915 ft | 431 kts | 166° |
| 2026-05-05 07:37 | 49.36959 | 0.28951 | 36907 ft | 430 kts | 166° |
| 2026-05-05 07:38 | 49.31214 | 0.31253 | 36906 ft | 429 kts | 166° |
| 2026-05-05 07:38 | 49.25453 | 0.33642 | 36908 ft | 429 kts | 165° |
| 2026-05-05 07:39 | 49.19705 | 0.36077 | 36908 ft | 429 kts | 165° |
| 2026-05-05 07:39 | 49.13955 | 0.38501 | 36904 ft | 429 kts | 165° |
| 2026-05-05 07:40 | 49.08186 | 0.40917 | 36898 ft | 430 kts | 165° |
| 2026-05-05 07:40 | 49.02394 | 0.43334 | 36894 ft | 432 kts | 165° |
| 2026-05-05 07:41 | 48.96590 | 0.45750 | 36880 ft | 432 kts | 165° |
| 2026-05-05 07:41 | 48.90790 | 0.48160 | 36886 ft | 432 kts | 165° |
| 2026-05-05 07:42 | 48.84993 | 0.50563 | 36880 ft | 432 kts | 165° |
| 2026-05-05 07:42 | 48.79204 | 0.52956 | 36887 ft | 431 kts | 165° |
| 2026-05-05 07:43 | 48.73397 | 0.55262 | 36871 ft | 432 kts | 166° |
| 2026-05-05 07:43 | 48.67574 | 0.57518 | 36877 ft | 431 kts | 166° |
| 2026-05-05 07:44 | 48.61754 | 0.59781 | 36871 ft | 432 kts | 166° |
| 2026-05-05 07:44 | 48.55930 | 0.62049 | 36873 ft | 433 kts | 166° |
| 2026-05-05 07:45 | 48.50138 | 0.64314 | 36865 ft | 433 kts | 166° |
| 2026-05-05 07:45 | 48.44314 | 0.66685 | 36866 ft | 434 kts | 165° |
| 2026-05-05 07:46 | 48.38491 | 0.69064 | 36880 ft | 435 kts | 165° |
| 2026-05-05 07:46 | 48.32626 | 0.71442 | 36854 ft | 437 kts | 166° |
| 2026-05-05 07:47 | 48.26758 | 0.73811 | 36864 ft | 437 kts | 165° |
| 2026-05-05 07:47 | 48.20871 | 0.76159 | 36851 ft | 437 kts | 166° |
| 2026-05-05 07:48 | 48.15001 | 0.78464 | 36858 ft | 436 kts | 166° |
| 2026-05-05 07:48 | 48.09137 | 0.80763 | 36855 ft | 435 kts | 166° |
| 2026-05-05 07:49 | 48.03277 | 0.83059 | 36856 ft | 436 kts | 166° |
| 2026-05-05 07:49 | 47.97401 | 0.85358 | 36851 ft | 437 kts | 166° |
| 2026-05-05 07:50 | 47.91527 | 0.87652 | 36847 ft | 436 kts | 166° |
| 2026-05-05 07:50 | 47.85692 | 0.89925 | 36842 ft | 435 kts | 166° |
| 2026-05-05 07:51 | 47.79849 | 0.92192 | 36857 ft | 434 kts | 166° |
| 2026-05-05 07:51 | 47.74005 | 0.94451 | 36846 ft | 434 kts | 166° |
| 2026-05-05 07:52 | 47.68164 | 0.96704 | 36842 ft | 433 kts | 166° |
| 2026-05-05 07:52 | 47.62330 | 0.98951 | 36850 ft | 433 kts | 166° |
| 2026-05-05 07:53 | 47.56497 | 1.01193 | 36857 ft | 433 kts | 166° |
| 2026-05-05 07:53 | 47.50649 | 1.03436 | 36841 ft | 435 kts | 166° |
| 2026-05-05 07:54 | 47.44791 | 1.05666 | 36847 ft | 434 kts | 168° |
| 2026-05-05 07:54 | 47.38811 | 1.06456 | 36851 ft | 432 kts | 181° |
| 2026-05-05 07:55 | 47.33805 | 1.06278 | 36852 ft | 433 kts | 181° |
| 2026-05-05 07:55 | 47.27780 | 1.06073 | 36857 ft | 434 kts | 181° |
| 2026-05-05 07:56 | 47.21736 | 1.05921 | 36856 ft | 435 kts | 181° |
| 2026-05-05 07:56 | 47.15683 | 1.05788 | 36860 ft | 435 kts | 181° |
| 2026-05-05 07:57 | 47.09619 | 1.05655 | 36863 ft | 436 kts | 181° |
| 2026-05-05 07:57 | 47.03540 | 1.05521 | 36869 ft | 437 kts | 181° |
| 2026-05-05 07:58 | 46.97459 | 1.05314 | 36865 ft | 437 kts | 182° |
| 2026-05-05 07:58 | 46.91419 | 1.05031 | 36874 ft | 437 kts | 182° |
| 2026-05-05 07:59 | 46.85351 | 1.04753 | 36877 ft | 436 kts | 182° |
| 2026-05-05 07:59 | 46.79287 | 1.04488 | 36881 ft | 435 kts | 182° |
| 2026-05-05 08:00 | 46.73240 | 1.04228 | 36900 ft | 436 kts | 182° |
| 2026-05-05 08:00 | 46.67162 | 1.03967 | 36882 ft | 438 kts | 182° |
| 2026-05-05 08:01 | 46.61059 | 1.03705 | 36874 ft | 438 kts | 182° |
| 2026-05-05 08:01 | 46.54978 | 1.03444 | 36883 ft | 435 kts | 182° |
| 2026-05-05 08:02 | 46.48967 | 1.04042 | 36882 ft | 434 kts | 168° |
| 2026-05-05 08:02 | 46.43088 | 1.06052 | 36895 ft | 434 kts | 168° |
| 2026-05-05 08:03 | 46.37221 | 1.08080 | 36896 ft | 433 kts | 168° |
| 2026-05-05 08:03 | 46.31387 | 1.10052 | 36892 ft | 433 kts | 168° |
| 2026-05-05 08:04 | 46.25510 | 1.12012 | 36902 ft | 434 kts | 168° |
| 2026-05-05 08:04 | 46.19622 | 1.13965 | 36907 ft | 435 kts | 168° |
| 2026-05-05 08:05 | 46.13958 | 1.15840 | 36911 ft | 436 kts | 168° |
| 2026-05-05 08:05 | 46.08812 | 1.17541 | 36902 ft | 437 kts | 168° |
| 2026-05-05 08:06 | 46.02873 | 1.19500 | 36911 ft | 438 kts | 168° |
| 2026-05-05 08:06 | 45.96917 | 1.21461 | 36905 ft | 439 kts | 168° |
| 2026-05-05 08:07 | 45.90951 | 1.23421 | 36914 ft | 440 kts | 169° |
| 2026-05-05 08:07 | 45.84974 | 1.25380 | 36918 ft | 441 kts | 169° |
| 2026-05-05 08:08 | 45.79025 | 1.27326 | 36916 ft | 441 kts | 169° |
| 2026-05-05 08:08 | 45.73040 | 1.29279 | 36912 ft | 441 kts | 169° |
| 2026-05-05 08:09 | 45.67051 | 1.31229 | 36915 ft | 441 kts | 169° |
| 2026-05-05 08:09 | 45.61072 | 1.33172 | 36913 ft | 441 kts | 169° |
| 2026-05-05 08:10 | 45.55088 | 1.35112 | 36917 ft | 440 kts | 169° |
| 2026-05-05 08:10 | 45.49113 | 1.37046 | 36916 ft | 440 kts | 169° |
| 2026-05-05 08:11 | 45.43142 | 1.38973 | 36927 ft | 440 kts | 169° |
| 2026-05-05 08:11 | 45.37163 | 1.40898 | 36927 ft | 441 kts | 169° |
| 2026-05-05 08:12 | 45.31189 | 1.42818 | 36932 ft | 440 kts | 169° |
| 2026-05-05 08:12 | 45.25206 | 1.44738 | 36929 ft | 440 kts | 169° |
| 2026-05-05 08:13 | 45.19225 | 1.46653 | 36948 ft | 440 kts | 170° |
| 2026-05-05 08:13 | 45.13240 | 1.48565 | 36924 ft | 441 kts | 170° |
| 2026-05-05 08:14 | 45.07266 | 1.50470 | 36943 ft | 441 kts | 170° |
| 2026-05-05 08:14 | 45.01283 | 1.52373 | 36938 ft | 441 kts | 170° |
| 2026-05-05 08:15 | 44.95342 | 1.54259 | 36933 ft | 441 kts | 170° |
| 2026-05-05 08:15 | 44.89356 | 1.56156 | 36935 ft | 440 kts | 170° |
| 2026-05-05 08:16 | 44.83376 | 1.58046 | 36937 ft | 440 kts | 170° |
| 2026-05-05 08:16 | 44.77405 | 1.59929 | 36947 ft | 440 kts | 170° |
| 2026-05-05 08:17 | 44.71425 | 1.61812 | 36936 ft | 440 kts | 170° |
| 2026-05-05 08:17 | 44.65450 | 1.63688 | 36949 ft | 440 kts | 171° |
| 2026-05-05 08:18 | 44.59470 | 1.65563 | 36947 ft | 440 kts | 171° |
| 2026-05-05 08:18 | 44.53499 | 1.67431 | 36953 ft | 439 kts | 171° |
| 2026-05-05 08:19 | 44.47571 | 1.69281 | 36956 ft | 439 kts | 171° |
| 2026-05-05 08:19 | 44.41600 | 1.71141 | 36958 ft | 440 kts | 171° |
| 2026-05-05 08:20 | 44.35617 | 1.73002 | 36954 ft | 440 kts | 171° |
| 2026-05-05 08:20 | 44.29639 | 1.74852 | 36960 ft | 440 kts | 172° |
| 2026-05-05 08:21 | 44.23619 | 1.76297 | 36961 ft | 438 kts | 175° |
| 2026-05-05 08:21 | 44.17592 | 1.77559 | 36967 ft | 438 kts | 175° |
| 2026-05-05 08:22 | 44.11564 | 1.78853 | 36962 ft | 438 kts | 175° |
| 2026-05-05 08:22 | 44.05534 | 1.80177 | 36970 ft | 439 kts | 175° |
| 2026-05-05 08:23 | 43.99505 | 1.81501 | 36969 ft | 438 kts | 175° |
| 2026-05-05 08:23 | 43.93476 | 1.82670 | 36972 ft | 436 kts | 179° |
| 2026-05-05 08:24 | 43.87435 | 1.83261 | 36965 ft | 435 kts | 180° |
| 2026-05-05 08:24 | 43.81400 | 1.83790 | 36975 ft | 434 kts | 180° |
| 2026-05-05 08:25 | 43.75420 | 1.84346 | 36984 ft | 433 kts | 180° |
| 2026-05-05 08:25 | 43.69408 | 1.84926 | 36986 ft | 433 kts | 180° |
| 2026-05-05 08:26 | 43.63397 | 1.85509 | 36987 ft | 433 kts | 180° |
| 2026-05-05 08:26 | 43.57394 | 1.86090 | 36992 ft | 432 kts | 181° |
| 2026-05-05 08:27 | 43.51400 | 1.86667 | 36989 ft | 432 kts | 181° |
| 2026-05-05 08:27 | 43.45406 | 1.87244 | 36984 ft | 431 kts | 181° |
| 2026-05-05 08:28 | 43.39550 | 1.87807 | 36987 ft | 430 kts | 181° |
| 2026-05-05 08:28 | 43.33576 | 1.88379 | 36987 ft | 430 kts | 181° |
| 2026-05-05 08:29 | 43.27608 | 1.88953 | 36975 ft | 429 kts | 181° |
| 2026-05-05 08:30 | 43.18672 | 1.89812 | 36977 ft | 429 kts | 181° |
| 2026-05-05 08:30 | 43.12724 | 1.90383 | 36977 ft | 428 kts | 181° |
| 2026-05-05 08:31 | 43.06823 | 1.90947 | 36986 ft | 427 kts | 181° |
| 2026-05-05 08:31 | 43.00892 | 1.91513 | 36968 ft | 427 kts | 182° |
| 2026-05-05 08:32 | 42.94974 | 1.92078 | 36971 ft | 426 kts | 182° |
| 2026-05-05 08:32 | 42.89067 | 1.92640 | 36965 ft | 425 kts | 182° |
| 2026-05-05 08:33 | 42.83172 | 1.93199 | 36972 ft | 425 kts | 182° |
| 2026-05-05 08:33 | 42.77271 | 1.93758 | 36964 ft | 425 kts | 182° |
| 2026-05-05 08:34 | 42.71379 | 1.94315 | 36962 ft | 424 kts | 182° |
| 2026-05-05 08:34 | 42.65478 | 1.94993 | 36962 ft | 428 kts | 179° |
| 2026-05-05 08:35 | 42.59593 | 1.96176 | 36945 ft | 426 kts | 178° |
| 2026-05-05 08:35 | 42.53762 | 1.97396 | 36932 ft | 423 kts | 178° |
| 2026-05-05 08:36 | 42.48000 | 1.98557 | 36934 ft | 421 kts | 178° |
| 2026-05-05 08:36 | 42.42209 | 1.99707 | 36939 ft | 420 kts | 178° |
| 2026-05-05 08:37 | 42.36421 | 2.00837 | 36929 ft | 420 kts | 181° |
| 2026-05-05 08:37 | 42.30612 | 2.01465 | 36933 ft | 419 kts | 183° |
| 2026-05-05 08:38 | 42.24778 | 2.01981 | 36935 ft | 422 kts | 183° |
| 2026-05-05 08:38 | 42.18903 | 2.02516 | 36945 ft | 424 kts | 183° |
| 2026-05-05 08:39 | 42.13135 | 2.03063 | 36948 ft | 426 kts | 182° |
| 2026-05-05 08:39 | 42.07208 | 2.03632 | 36936 ft | 428 kts | 182° |
| 2026-05-05 08:40 | 42.01258 | 2.04203 | 36940 ft | 429 kts | 182° |
| 2026-05-05 08:40 | 41.95291 | 2.04773 | 36939 ft | 430 kts | 182° |
| 2026-05-05 08:41 | 41.89326 | 2.05342 | 36942 ft | 430 kts | 182° |
| 2026-05-05 08:41 | 41.83388 | 2.05908 | 36944 ft | 430 kts | 183° |
| 2026-05-05 08:42 | 41.77420 | 2.06474 | 36948 ft | 429 kts | 183° |
| 2026-05-05 08:42 | 41.71470 | 2.07038 | 36953 ft | 428 kts | 183° |
| 2026-05-05 08:43 | 41.65528 | 2.07597 | 36951 ft | 428 kts | 183° |
| 2026-05-05 08:43 | 41.59591 | 2.08144 | 36963 ft | 427 kts | 183° |
| 2026-05-05 08:44 | 41.53668 | 2.08690 | 36963 ft | 426 kts | 183° |
| 2026-05-05 08:44 | 41.47755 | 2.09234 | 36966 ft | 426 kts | 183° |
| 2026-05-05 08:45 | 41.41846 | 2.09778 | 36974 ft | 426 kts | 183° |
| 2026-05-05 08:45 | 41.35938 | 2.10320 | 36956 ft | 426 kts | 183° |
| 2026-05-05 08:46 | 41.31026 | 2.10771 | 36961 ft | 426 kts | 183° |
| 2026-05-05 08:46 | 41.25103 | 2.11628 | 36965 ft | 429 kts | 180° |
| 2026-05-05 08:47 | 41.19177 | 2.12679 | 36958 ft | 430 kts | 180° |
| 2026-05-05 08:47 | 41.13244 | 2.13718 | 36957 ft | 430 kts | 180° |
| 2026-05-05 08:48 | 41.07317 | 2.14723 | 36955 ft | 430 kts | 180° |
| 2026-05-05 08:48 | 41.01379 | 2.15715 | 36945 ft | 430 kts | 180° |
| 2026-05-05 08:49 | 40.95441 | 2.16704 | 36938 ft | 430 kts | 180° |
| 2026-05-05 08:49 | 40.89499 | 2.17692 | 36949 ft | 430 kts | 180° |
| 2026-05-05 08:50 | 40.83594 | 2.18673 | 36937 ft | 430 kts | 181° |
| 2026-05-05 08:50 | 40.77766 | 2.19640 | 36939 ft | 430 kts | 181° |
| 2026-05-05 08:51 | 40.71822 | 2.20624 | 36940 ft | 430 kts | 181° |
| 2026-05-05 08:51 | 40.65878 | 2.21606 | 36938 ft | 430 kts | 181° |
| 2026-05-05 08:52 | 40.59944 | 2.22585 | 36938 ft | 429 kts | 181° |
| 2026-05-05 08:52 | 40.54019 | 2.23561 | 36942 ft | 429 kts | 181° |
| 2026-05-05 08:53 | 40.48095 | 2.24534 | 36945 ft | 429 kts | 181° |
| 2026-05-05 08:53 | 40.42182 | 2.25504 | 36944 ft | 428 kts | 181° |
| 2026-05-05 08:54 | 40.36270 | 2.26828 | 36946 ft | 432 kts | 177° |
| 2026-05-05 08:54 | 40.30410 | 2.28421 | 36946 ft | 433 kts | 177° |
| 2026-05-05 08:54 | 40.27440 | 2.29223 | 36523 ft | 439 kts | 177° |
| 2026-05-05 08:55 | 40.24459 | 2.30014 | 36009 ft | 436 kts | 178° |
| 2026-05-05 08:55 | 40.21483 | 2.30796 | 35385 ft | 435 kts | 178° |
| 2026-05-05 08:55 | 40.18517 | 2.31565 | 34727 ft | 435 kts | 178° |
| 2026-05-05 08:55 | 40.15537 | 2.32333 | 34071 ft | 436 kts | 178° |
| 2026-05-05 08:56 | 40.12560 | 2.33096 | 33338 ft | 436 kts | 178° |
| 2026-05-05 08:56 | 40.09580 | 2.33860 | 32590 ft | 437 kts | 178° |
| 2026-05-05 08:56 | 40.06707 | 2.34597 | 31901 ft | 437 kts | 178° |
| 2026-05-05 08:56 | 40.03724 | 2.35362 | 31251 ft | 435 kts | 178° |
| 2026-05-05 08:57 | 40.00776 | 2.36121 | 30764 ft | 430 kts | 178° |
| 2026-05-05 08:57 | 39.97855 | 2.36872 | 30255 ft | 426 kts | 178° |
| 2026-05-05 08:57 | 39.94957 | 2.37615 | 29702 ft | 422 kts | 178° |
| 2026-05-05 08:57 | 39.94027 | 2.37853 | 29518 ft | 421 kts | 178° |
| 2026-05-05 08:58 | 39.92200 | 2.38320 | 29179 ft | 417 kts | 178° |
| 2026-05-05 08:58 | 39.89367 | 2.39044 | 28666 ft | 412 kts | 178° |
| 2026-05-05 08:58 | 39.86576 | 2.39756 | 28156 ft | 407 kts | 178° |
| 2026-05-05 08:58 | 39.83796 | 2.40460 | 27407 ft | 408 kts | 178° |
| 2026-05-05 08:59 | 39.81140 | 2.41132 | 26690 ft | 410 kts | 177° |
| 2026-05-05 08:59 | 39.78279 | 2.41859 | 26093 ft | 407 kts | 177° |
| 2026-05-05 08:59 | 39.75656 | 2.42387 | 25616 ft | 397 kts | 183° |
| 2026-05-05 08:59 | 39.72936 | 2.42421 | 25092 ft | 386 kts | 192° |
| 2026-05-05 09:00 | 39.70292 | 2.42008 | 24564 ft | 381 kts | 194° |
| 2026-05-05 09:00 | 39.67671 | 2.41565 | 24030 ft | 379 kts | 194° |
| 2026-05-05 09:00 | 39.65061 | 2.41138 | 23507 ft | 377 kts | 193° |
| 2026-05-05 09:00 | 39.62459 | 2.40732 | 22927 ft | 375 kts | 193° |
| 2026-05-05 09:01 | 39.59876 | 2.40341 | 22387 ft | 372 kts | 193° |
| 2026-05-05 09:01 | 39.57345 | 2.39798 | 21832 ft | 364 kts | 201° |
| 2026-05-05 09:01 | 39.55007 | 2.38638 | 21286 ft | 357 kts | 210° |
| 2026-05-05 09:01 | 39.52869 | 2.37068 | 20769 ft | 350 kts | 218° |
| 2026-05-05 09:02 | 39.51020 | 2.35100 | 20133 ft | 340 kts | 224° |
| 2026-05-05 09:02 | 39.49270 | 2.33046 | 19276 ft | 339 kts | 225° |
| 2026-05-05 09:02 | 39.47533 | 2.30976 | 18598 ft | 335 kts | 225° |
| 2026-05-05 09:02 | 39.45873 | 2.29001 | 18452 ft | 315 kts | 225° |
| 2026-05-05 09:03 | 39.44277 | 2.27110 | 17886 ft | 309 kts | 225° |
| 2026-05-05 09:03 | 39.42689 | 2.25232 | 17085 ft | 310 kts | 225° |
| 2026-05-05 09:03 | 39.41094 | 2.23351 | 16348 ft | 310 kts | 224° |
| 2026-05-05 09:03 | 39.39505 | 2.21484 | 15682 ft | 308 kts | 224° |
| 2026-05-05 09:04 | 39.37924 | 2.19630 | 15028 ft | 306 kts | 224° |
| 2026-05-05 09:04 | 39.36356 | 2.17794 | 14513 ft | 301 kts | 224° |
| 2026-05-05 09:04 | 39.34817 | 2.15995 | 14093 ft | 296 kts | 224° |
| 2026-05-05 09:04 | 39.33287 | 2.14207 | 13734 ft | 298 kts | 224° |
| 2026-05-05 09:05 | 39.31765 | 2.12430 | 13327 ft | 299 kts | 224° |
| 2026-05-05 09:05 | 39.30224 | 2.10631 | 12930 ft | 298 kts | 224° |
| 2026-05-05 09:05 | 39.28689 | 2.08842 | 12556 ft | 297 kts | 223° |
| 2026-05-05 09:05 | 39.27160 | 2.07060 | 12188 ft | 295 kts | 223° |
| 2026-05-05 09:06 | 39.25640 | 2.05290 | 11824 ft | 294 kts | 223° |
| 2026-05-05 09:06 | 39.24124 | 2.03527 | 11469 ft | 293 kts | 223° |
| 2026-05-05 09:06 | 39.22616 | 2.01773 | 11104 ft | 292 kts | 223° |
| 2026-05-05 09:06 | 39.21108 | 2.00020 | 10743 ft | 291 kts | 223° |
| 2026-05-05 09:07 | 39.19609 | 1.98279 | 10390 ft | 288 kts | 223° |
| 2026-05-05 09:07 | 39.18155 | 1.96592 | 10041 ft | 281 kts | 223° |
| 2026-05-05 09:07 | 39.16716 | 1.94922 | 9685 ft | 278 kts | 223° |
| 2026-05-05 09:07 | 39.15279 | 1.93256 | 9322 ft | 278 kts | 223° |
| 2026-05-05 09:08 | 39.14019 | 1.91795 | 9020 ft | 277 kts | 223° |
| 2026-05-05 09:08 | 39.12591 | 1.90141 | 8647 ft | 273 kts | 223° |
| 2026-05-05 09:08 | 39.11197 | 1.88526 | 8304 ft | 267 kts | 223° |
| 2026-05-05 09:08 | 39.09820 | 1.86933 | 7991 ft | 266 kts | 223° |
| 2026-05-05 09:09 | 39.08443 | 1.85340 | 7661 ft | 266 kts | 223° |
| 2026-05-05 09:09 | 39.07067 | 1.83752 | 7344 ft | 266 kts | 223° |
| 2026-05-05 09:09 | 39.05768 | 1.82144 | 7011 ft | 266 kts | 233° |
| 2026-05-05 09:09 | 39.04851 | 1.80087 | 6702 ft | 263 kts | 244° |
| 2026-05-05 09:10 | 39.04048 | 1.78000 | 6364 ft | 257 kts | 243° |
| 2026-05-05 09:10 | 39.03265 | 1.75996 | 6072 ft | 253 kts | 243° |
| 2026-05-05 09:10 | 39.02516 | 1.74102 | 5787 ft | 253 kts | 242° |
| 2026-05-05 09:10 | 39.01667 | 1.72038 | 5467 ft | 253 kts | 241° |
| 2026-05-05 09:11 | 39.00889 | 1.70173 | 5177 ft | 252 kts | 241° |
| 2026-05-05 09:11 | 39.00066 | 1.68201 | 4856 ft | 247 kts | 241° |
| 2026-05-05 09:11 | 38.99273 | 1.66299 | 4546 ft | 242 kts | 240° |
| 2026-05-05 09:11 | 38.98491 | 1.64424 | 4267 ft | 233 kts | 241° |
| 2026-05-05 09:12 | 38.97745 | 1.62636 | 3982 ft | 222 kts | 241° |
| 2026-05-05 09:12 | 38.97033 | 1.60925 | 3693 ft | 213 kts | 241° |
| 2026-05-05 09:12 | 38.96375 | 1.59313 | 3538 ft | 199 kts | 241° |
| 2026-05-05 09:12 | 38.95742 | 1.57768 | 3291 ft | 191 kts | 242° |
| 2026-05-05 09:13 | 38.95122 | 1.56269 | 3048 ft | 190 kts | 241° |
| 2026-05-05 09:13 | 38.94505 | 1.54780 | 2787 ft | 188 kts | 242° |
| 2026-05-05 09:13 | 38.93887 | 1.53287 | 2528 ft | 188 kts | 242° |
| 2026-05-05 09:13 | 38.93284 | 1.51831 | 2275 ft | 185 kts | 242° |
| 2026-05-05 09:14 | 38.92687 | 1.50387 | 2041 ft | 175 kts | 242° |
| 2026-05-05 09:14 | 38.92130 | 1.49040 | 1813 ft | 166 kts | 242° |
| 2026-05-05 09:14 | 38.91605 | 1.47770 | 1600 ft | 158 kts | 240° |
| 2026-05-05 09:14 | 38.91096 | 1.46540 | 1367 ft | 154 kts | 241° |
| 2026-05-05 09:15 | 38.90604 | 1.45348 | 1227 ft | 148 kts | 241° |
| 2026-05-05 09:15 | 38.90115 | 1.44165 | 975 ft | 149 kts | 241° |
| 2026-05-05 09:15 | 38.89637 | 1.43016 | 804 ft | 147 kts | 242° |
| 2026-05-05 09:15 | 38.89164 | 1.41841 | 578 ft | 149 kts | 242° |
| 2026-05-05 09:16 | 38.88678 | 1.40663 | 351 ft | 147 kts | 243° |
| 2026-05-05 09:16 | 38.88209 | 1.39536 | 155 ft | 143 kts | 242° |
| 2026-05-05 09:16 | 38.87748 | 1.38434 | 38 ft | 138 kts | 243° |
| 2026-05-05 09:16 | 38.87373 | 1.37524 | 31 ft | 74 kts | 242° |
| 2026-05-05 09:17 | 38.87272 | 1.37265 | 30 ft | 18 kts | 254° |
| 2026-05-05 09:17 | 38.87259 | 1.37105 | 32 ft | 18 kts | 270° |
| 2026-05-05 09:17 | 38.87261 | 1.36997 | 32 ft | 6 kts | 272° |
| 2026-05-05 09:17 | 38.87263 | 1.36945 | 33 ft | 6 kts | 272° |
| 2026-05-05 09:18 | 38.87266 | 1.36894 | 35 ft | 6 kts | 283° |
| 2026-05-05 09:18 | 38.87298 | 1.36882 | 37 ft | 6 kts | 32° |
| 2026-05-05 09:18 | 38.87316 | 1.36926 | 37 ft | 6 kts | 66° |
| 2026-05-05 09:18 | 38.87331 | 1.36971 | 36 ft | 5 kts | 65° |
| 2026-05-05 09:19 | 38.87348 | 1.37014 | 38 ft | 5 kts | 62° |
| 2026-05-05 09:19 | 38.87366 | 1.37056 | 38 ft | 5 kts | 62° |
| 2026-05-05 09:19 | 38.87383 | 1.37097 | 39 ft | 5 kts | 62° |
| 2026-05-05 09:19 | 38.87402 | 1.37137 | 39 ft | 6 kts | 41° |
| 2026-05-05 09:20 | 38.87448 | 1.37118 | 40 ft | 9 kts | 331° |
| 2026-05-05 09:20 | 38.87483 | 1.37094 | 43 ft | 3 kts | 332° |
| 2026-05-05 09:20 | 38.87493 | 1.37087 | 44 ft | 0 kts | 332° |